Indianapolis, IN

7:41 AM EDT on August 21, 2014 (GMT -0400)
North Fountain Square | Change Station
CLOSE
Current Station
Personal Weather Station
Location: Indianapolis, IN
Elevation: 738 ft
Nearby Weather Stations
Active Advisory: Special Statement Active Notice: Public Information Statement

Elev 738 ft 39.76 °N, 86.14 °W | Updated 9 seconds ago

Light Thunderstorms and Rain
Light Thunderstorm Rain
71.8 °F
Feels Like 71.8 °F
N
0.2
Wind Variable Wind from SSW
Gusts 2.5 mph

Today
High -- | Low -- °F
--% Chance of Precip.
Yesterday
High -- | Low -- °F
Precip. -- in
7:02 AM 8:32 PM
Waning Crescent, 15% visible
Pressure 29.99 in
Visibility 8.0 miles
Clouds Few 5000 ft
Scattered Clouds 7000 ft
Overcast 9000 ft
Dew Point 70 °F
Humidity 95%
Rainfall 0.07 in
Snow Depth Not available.
UV 0 out of 12
Pollen 9.30 out of 12
Ozone Good
PM2.5 Good
Flu Activity Not available.
SPECI KIND 211000Z 16004KT 8SM -TSRA FEW050CB SCT070 OVC090 22/20 A2999 RMK AO2 TSB00 OCNL LTGICCC VC SW-W TS SW-W MOV E P0000 T02170200 $

More Conditions Fewer Conditions

Pressure 29.99 in
Visibility 8.0 miles
Clouds Few 5000 ft
Scattered Clouds 7000 ft
Overcast 9000 ft
Dew Point 70 °F
Humidity 95%
Rainfall 0.07 in
Snow Depth Not available.
UV 0 out of 12
Pollen 9.30 out of 12
Ozone Good
PM2.5 Good
Flu Activity Not available.
SPECI KIND 211000Z 16004KT 8SM -TSRA FEW050CB SCT070 OVC090 22/20 A2999 RMK AO2 TSB00 OCNL LTGICCC VC SW-W TS SW-W MOV E P0000 T02170200 $

More Conditions Fewer Conditions

10-Day Weather Forecast

Almanac

Astronomy

Aug. 21, 2014 Rise Set
Actual Time 7:02 AM EDT 8:32 PM EDT
Civil Twilight 6:33 AM EDT 9:00 PM EDT
Nautical Twilight 5:59 AM EDT 9:34 PM EDT
Astronomical Twilight 5:23 AM EDT 10:10 PM EDT
Moon 3:32 AM EDT 6:00 PM EDT
Length of Visible Light 14h 26m
Length of Day
13h 30m
Tomorrow will be 2m 23s shorter.
Waning Crescent, 15% of the Moon is Illuminated
Today
Waning Crescent
Aug 25
New
Sep 2
First Quarter
Sep 8
Full
Sep 15
Last Quarter

Today's Extremes

State Highs State Lows

Community

WunderPhotos

Upload Photos

1,745,864 photos uploaded!

Nearby

Air Quality

  Air Quality AQ Index Pollutant
Yesterday Good
OZONE
Yesterday Good
PM10
Current Good
PM2.5
Current Good
OZONE
Thursday Moderate
PM2.5
Thursday Good
OZONE
Friday Moderate
PM2.5
Friday Good
OZONE

Snow Depth

Station Depth Elevation
No new snow has been reported.

Earthquake Activity

City Distance Mag. Time & Date
No recent earthquake activity has been reported nearby.
Minimum magnitude displayed is 2.5.

Coastal Water Temperatures

Place Temperature
No Stations Reporting

Nearby Weather Stations